Time;durP1;ratioP1;P1;durP2;ratioP2;P2;SDS_P1;SDS_P2;PMS_P1;PMS_P2;Temp;Humidity;BMP_temperature;BMP_pressure;BME280_temperature;BME280_humidity;BME280_pressure;Samples;Min_cycle;Max_cycle;Signal;HPM_P1;HPM_P2
2022/05/04 00:01:16;;;;;;;9.10;7.70;;;10.30;99.90;;;;;;4978267;28;20196;-28
2022/05/04 00:03:42;;;;;;;9.10;7.10;;;10.20;99.90;;;;;;4977993;28;20220;-29
2022/05/04 00:06:09;;;;;;;8.30;7.37;;;9.90;99.90;;;;;;4962019;28;20194;-29
2022/05/04 00:08:37;;;;;;;8.47;7.60;;;9.90;99.90;;;;;;4961345;28;20315;-29
2022/05/04 00:11:04;;;;;;;9.07;7.37;;;10.00;99.90;;;;;;4977843;28;20203;-29
2022/05/04 00:13:43;;;;;;;9.00;7.23;;;10.10;99.90;;;;;;4995318;28;20207;-28
2022/05/04 00:16:09;;;;;;;10.43;7.67;;;10.00;99.90;;;;;;4961880;28;20621;-28
2022/05/04 00:18:35;;;;;;;8.20;7.30;;;10.10;99.90;;;;;;4995179;28;20653;-29
2022/05/04 00:21:01;;;;;;;9.00;8.10;;;10.10;99.90;;;;;;4977708;28;20182;-29
2022/05/04 00:23:27;;;;;;;10.97;7.60;;;10.20;99.90;;;;;;4977861;28;20206;-30
2022/05/04 00:25:53;;;;;;;9.53;8.03;;;10.10;99.90;;;;;;4977678;28;20207;-29
2022/05/04 00:28:19;;;;;;;8.73;7.83;;;10.10;99.90;;;;;;4961368;28;20184;-29
2022/05/04 00:30:45;;;;;;;8.80;7.87;;;10.00;99.90;;;;;;4985193;28;20222;-29
2022/05/04 00:33:11;;;;;;;9.37;8.13;;;10.00;99.90;;;;;;4975501;28;20216;-29
2022/05/04 00:35:38;;;;;;;8.70;7.80;;;10.00;99.90;;;;;;4992827;28;20172;-29
2022/05/04 00:38:04;;;;;;;8.07;7.20;;;9.90;99.90;;;;;;4997426;28;20170;-30
2022/05/04 00:40:30;;;;;;;10.17;7.50;;;9.70;99.90;;;;;;4977796;28;20199;-29
2022/05/04 00:42:56;;;;;;;8.70;6.93;;;9.60;99.90;;;;;;4977027;28;20185;-29
2022/05/04 00:45:22;;;;;;;11.00;8.03;;;9.50;99.90;;;;;;4994338;28;20238;-30
2022/05/04 00:47:48;;;;;;;8.43;7.10;;;9.50;99.90;;;;;;4994668;28;20183;-30
2022/05/04 00:50:14;;;;;;;8.43;7.60;;;9.50;99.90;;;;;;4994210;28;20294;-29
2022/05/04 00:52:43;;;;;;;9.30;7.03;;;9.40;99.90;;;;;;4977780;28;20233;-30
2022/05/04 00:55:10;;;;;;;9.07;8.00;;;9.40;99.90;;;;;;4994590;28;20183;-29
2022/05/04 01:00:24;;;;;;;8.27;6.97;;;9.20;99.90;;;;;;5011762;28;20211;-30
2022/05/04 01:02:50;;;;;;;9.00;7.57;;;9.10;99.90;;;;;;4994046;28;20191;-29
2022/05/04 01:05:16;;;;;;;9.57;7.77;;;9.00;99.90;;;;;;4977968;28;20196;-31
2022/05/04 01:07:44;;;;;;;10.23;7.13;;;9.00;99.90;;;;;;4994223;28;20188;-30
2022/05/04 01:10:11;;;;;;;9.33;7.27;;;9.10;99.90;;;;;;4993858;28;20202;-30
2022/05/04 01:12:51;;;;;;;10.33;7.63;;;9.10;99.90;;;;;;5011719;28;20218;-29
2022/05/04 01:15:19;;;;;;;8.70;7.80;;;9.20;99.90;;;;;;4994065;28;20179;-30
2022/05/04 01:17:45;;;;;;;8.90;7.17;;;9.20;99.90;;;;;;5011670;28;20260;-30
2022/05/04 01:20:12;;;;;;;7.90;7.10;;;9.30;99.90;;;;;;4994079;28;20195;-28
2022/05/04 01:22:39;;;;;;;9.60;7.33;;;9.40;99.90;;;;;;4993801;28;20191;-29
2022/05/04 01:25:05;;;;;;;8.40;7.60;;;9.30;99.90;;;;;;4994052;28;20175;-30
2022/05/04 01:27:31;;;;;;;8.50;7.70;;;9.30;99.90;;;;;;4994134;28;20278;-30
2022/05/04 01:29:57;;;;;;;10.40;8.00;;;9.30;99.90;;;;;;5011112;28;20294;-31
2022/05/04 01:32:24;;;;;;;9.57;7.87;;;9.30;99.90;;;;;;4993724;28;20203;-30
2022/05/04 01:34:50;;;;;;;9.73;8.10;;;9.20;99.90;;;;;;4993892;28;20209;-28
2022/05/04 01:37:16;;;;;;;7.93;7.00;;;9.20;99.90;;;;;;4977738;28;20183;-29
2022/05/04 01:39:43;;;;;;;7.70;6.90;;;9.20;99.90;;;;;;4993533;28;20198;-29
2022/05/04 01:42:16;;;;;;;9.43;7.53;;;9.20;99.90;;;;;;4977449;28;20190;-30
2022/05/04 01:44:44;;;;;;;8.70;7.80;;;9.10;99.90;;;;;;4977368;28;20277;-30
2022/05/04 01:47:11;;;;;;;8.03;7.23;;;9.10;99.90;;;;;;4977664;28;20292;-29
2022/05/04 01:49:38;;;;;;;8.33;7.13;;;9.10;99.90;;;;;;4977014;28;20202;-30
2022/05/04 01:52:04;;;;;;;8.27;7.47;;;9.10;99.90;;;;;;5011292;28;20289;-30
2022/05/04 01:54:30;;;;;;;8.37;7.33;;;9.00;99.90;;;;;;4993573;28;20547;-29
2022/05/04 01:56:56;;;;;;;7.60;6.90;;;9.10;99.90;;;;;;4993513;28;20202;-29
2022/05/04 01:59:22;;;;;;;8.03;6.87;;;9.10;99.90;;;;;;4983050;28;20269;-30
2022/05/04 02:01:48;;;;;;;7.97;6.87;;;9.10;99.90;;;;;;4983828;28;20228;-29
2022/05/04 02:04:15;;;;;;;7.63;6.70;;;9.10;99.90;;;;;;4983641;28;20233;-29
2022/05/04 02:06:41;;;;;;;7.83;7.03;;;9.20;99.90;;;;;;4984184;28;20175;-30
2022/05/04 02:09:07;;;;;;;7.67;6.83;;;9.20;99.90;;;;;;4999774;28;20230;-29
2022/05/04 02:11:35;;;;;;;9.80;7.10;;;9.20;99.90;;;;;;5000130;28;20172;-29
2022/05/04 02:14:01;;;;;;;8.57;7.20;;;9.20;99.90;;;;;;4983412;28;20205;-29
2022/05/04 02:16:28;;;;;;;9.40;7.40;;;9.20;99.90;;;;;;4982576;28;20671;-30
2022/05/04 02:18:55;;;;;;;11.70;7.17;;;9.30;99.90;;;;;;5001650;28;20292;-29
2022/05/04 02:21:21;;;;;;;7.73;6.80;;;9.30;99.90;;;;;;5000137;28;20197;-29
2022/05/04 02:23:47;;;;;;;7.70;6.83;;;9.30;99.90;;;;;;4999876;28;20176;-31
2022/05/04 02:26:13;;;;;;;6.87;6.17;;;9.30;99.90;;;;;;4999910;28;20217;-29
2022/05/04 02:28:39;;;;;;;8.33;6.97;;;9.30;99.90;;;;;;4999734;28;20612;-29
2022/05/04 02:31:04;;;;;;;7.17;6.47;;;9.20;99.90;;;;;;4996118;28;20191;-30
2022/05/04 02:33:31;;;;;;;7.77;6.97;;;9.20;99.90;;;;;;4964066;28;20218;-29
2022/05/04 02:38:43;;;;;;;7.83;7.03;;;9.20;99.90;;;;;;4990455;28;20199;-29
2022/05/04 02:41:09;;;;;;;8.27;7.17;;;9.20;99.90;;;;;;4980838;28;20255;-30
2022/05/04 02:43:35;;;;;;;8.20;7.40;;;9.10;99.90;;;;;;4964031;28;20199;-29
2022/05/04 02:46:15;;;;;;;8.93;7.93;;;9.10;99.90;;;;;;4966351;28;20183;-29
2022/05/04 02:48:41;;;;;;;8.47;7.53;;;9.10;99.90;;;;;;4982058;28;20708;-29
2022/05/04 02:51:07;;;;;;;7.77;7.07;;;9.10;99.90;;;;;;4979759;28;20188;-29
2022/05/04 02:53:33;;;;;;;8.30;7.43;;;9.10;99.90;;;;;;4979938;28;20203;-30
2022/05/04 02:55:59;;;;;;;7.77;6.97;;;9.20;99.90;;;;;;4997258;28;20231;-31
2022/05/04 02:58:25;;;;;;;8.97;8.03;;;9.20;99.90;;;;;;4979959;28;20200;-30
2022/05/04 03:00:51;;;;;;;9.00;7.60;;;9.20;99.90;;;;;;5011610;28;20187;-31
2022/05/04 03:03:18;;;;;;;8.00;7.20;;;9.20;99.90;;;;;;4983344;28;20187;-30
2022/05/04 03:05:44;;;;;;;8.60;7.30;;;9.20;99.90;;;;;;4999570;28;20197;-30
2022/05/04 03:08:10;;;;;;;7.87;7.07;;;9.10;99.90;;;;;;4999441;28;20187;-29
2022/05/04 03:13:20;;;;;;;8.03;7.20;;;9.40;99.90;;;;;;5014012;28;20214;-29
2022/05/04 03:15:46;;;;;;;9.17;7.00;;;9.40;99.90;;;;;;4996411;28;20585;-30
2022/05/04 03:18:13;;;;;;;8.00;7.27;;;9.40;99.90;;;;;;5013398;28;20171;-30
2022/05/04 03:20:39;;;;;;;9.20;7.53;;;9.40;99.90;;;;;;4979473;28;20175;-29
2022/05/04 03:23:05;;;;;;;8.77;7.47;;;9.40;99.90;;;;;;4996499;28;20183;-28
2022/05/04 03:25:31;;;;;;;8.17;7.33;;;9.30;99.90;;;;;;4995948;28;20255;-30
2022/05/04 03:27:56;;;;;;;7.87;7.07;;;9.30;99.90;;;;;;4996161;28;20258;-30
2022/05/04 03:30:22;;;;;;;8.40;7.60;;;9.30;99.90;;;;;;5013523;28;20210;-29
2022/05/04 03:32:48;;;;;;;8.10;7.30;;;9.40;99.90;;;;;;4995772;28;20206;-28
2022/05/04 03:35:14;;;;;;;7.63;6.93;;;9.40;99.90;;;;;;4995807;28;20179;-29
2022/05/04 03:37:39;;;;;;;7.63;6.83;;;9.50;99.90;;;;;;4979756;28;20184;-29
2022/05/04 03:40:07;;;;;;;10.80;7.30;;;9.50;99.90;;;;;;4995471;28;20195;-30
2022/05/04 03:42:33;;;;;;;9.83;7.60;;;9.50;99.90;;;;;;4995815;28;20242;-29
2022/05/04 03:44:59;;;;;;;8.30;7.50;;;9.50;99.90;;;;;;4995582;28;20182;-29
2022/05/04 03:47:24;;;;;;;9.30;7.17;;;9.50;99.90;;;;;;4979387;28;20183;-29
2022/05/04 03:49:50;;;;;;;7.63;6.93;;;9.60;99.90;;;;;;4978950;28;20203;-28
2022/05/04 03:52:16;;;;;;;10.43;7.33;;;9.60;99.90;;;;;;4995459;28;20218;-29
2022/05/04 03:54:42;;;;;;;8.93;7.60;;;9.60;99.90;;;;;;4995436;28;20198;-30
2022/05/04 03:57:08;;;;;;;8.93;7.60;;;9.60;99.90;;;;;;4995402;28;20183;-30
2022/05/04 03:59:33;;;;;;;8.93;8.03;;;9.60;99.90;;;;;;4992635;28;20350;-30
2022/05/04 04:02:00;;;;;;;8.70;7.50;;;9.60;99.90;;;;;;4993605;28;20176;-30
2022/05/04 04:04:26;;;;;;;8.10;6.73;;;9.80;99.90;;;;;;4959726;28;20191;-29
2022/05/04 04:06:52;;;;;;;7.80;6.80;;;9.80;99.90;;;;;;4975962;28;20176;-32
2022/05/04 04:09:17;;;;;;;8.20;7.07;;;9.80;99.90;;;;;;4975174;28;20210;-29
2022/05/04 04:11:43;;;;;;;9.77;7.40;;;9.80;99.90;;;;;;4960009;28;20200;-30
2022/05/04 04:14:09;;;;;;;7.60;6.80;;;9.80;99.90;;;;;;4976023;28;20173;-30
2022/05/04 04:16:35;;;;;;;8.23;7.30;;;9.80;99.90;;;;;;4975641;28;20183;-29
2022/05/04 04:19:01;;;;;;;9.07;7.50;;;9.80;99.90;;;;;;4959341;28;20200;-30
2022/05/04 04:24:11;;;;;;;8.53;7.73;;;9.80;99.90;;;;;;4993140;28;20207;-31
2022/05/04 04:26:38;;;;;;;9.17;7.50;;;9.80;99.90;;;;;;4975646;28;20215;-30
2022/05/04 04:29:04;;;;;;;8.10;6.97;;;9.80;99.90;;;;;;4959259;28;20192;-30
2022/05/04 04:31:30;;;;;;;8.30;7.33;;;9.80;99.90;;;;;;4994598;28;20179;-30
2022/05/04 04:33:56;;;;;;;9.10;7.30;;;9.80;99.90;;;;;;4978748;28;20215;-30
2022/05/04 04:36:22;;;;;;;8.70;7.37;;;9.90;99.90;;;;;;4994763;28;20192;-30
2022/05/04 04:38:48;;;;;;;9.50;7.83;;;9.80;99.90;;;;;;4978531;28;20660;-30
2022/05/04 04:41:14;;;;;;;11.43;7.83;;;9.90;99.90;;;;;;4995552;28;20221;-29
2022/05/04 04:43:40;;;;;;;10.47;7.70;;;9.80;99.90;;;;;;4996858;28;20221;-30
2022/05/04 04:46:06;;;;;;;8.37;7.57;;;9.80;99.90;;;;;;4997146;28;20187;-29
2022/05/04 04:48:32;;;;;;;8.30;7.50;;;9.90;99.90;;;;;;4996846;28;20195;-30
2022/05/04 04:50:58;;;;;;;7.80;6.43;;;9.80;99.90;;;;;;4996189;28;20183;-30
2022/05/04 04:53:23;;;;;;;8.27;6.87;;;9.90;99.90;;;;;;4996653;28;20211;-29
2022/05/04 04:55:50;;;;;;;7.87;7.03;;;9.90;99.90;;;;;;4996904;28;20179;-29
2022/05/04 04:58:15;;;;;;;6.67;6.07;;;9.90;99.90;;;;;;4996661;28;20185;-29
2022/05/04 05:00:42;;;;;;;8.37;6.90;;;10.00;99.90;;;;;;4996275;28;20184;-29
2022/05/04 05:03:08;;;;;;;10.63;7.17;;;10.00;99.90;;;;;;4996435;28;20183;-30
2022/05/04 05:05:34;;;;;;;13.80;7.63;;;10.10;99.90;;;;;;4996531;28;20171;-30
2022/05/04 05:08:00;;;;;;;7.27;6.57;;;10.10;99.90;;;;;;4996724;28;20278;-29
2022/05/04 05:10:27;;;;;;;9.50;7.40;;;10.10;99.90;;;;;;4979836;28;20295;-29
2022/05/04 05:12:53;;;;;;;9.73;7.13;;;10.20;99.90;;;;;;4996249;28;20206;-30
2022/05/04 05:18:04;;;;;;;7.03;6.33;;;10.10;99.90;;;;;;5013994;28;20167;-30
2022/05/04 05:21:21;;;;;;;6.97;6.27;;;10.10;99.90;;;;;;4995964;28;20205;-29
2022/05/04 05:23:47;;;;;;;7.10;6.37;;;10.20;99.90;;;;;;4996193;28;20179;-29
2022/05/04 05:26:13;;;;;;;7.47;5.70;;;10.10;99.90;;;;;;5013654;28;20186;-30
2022/05/04 05:28:39;;;;;;;7.17;5.83;;;10.20;99.90;;;;;;4979877;28;20207;-30
2022/05/04 05:31:04;;;;;;;6.70;6.00;;;10.20;99.90;;;;;;4995989;28;20190;-30
2022/05/04 05:33:30;;;;;;;6.53;5.90;;;10.10;99.90;;;;;;5012907;28;20206;-30
2022/05/04 05:35:56;;;;;;;6.47;5.77;;;10.10;99.90;;;;;;4995997;28;20270;-30
2022/05/04 05:38:26;;;;;;;7.73;6.37;;;10.20;99.90;;;;;;4979782;28;20183;-30
2022/05/04 05:41:03;;;;;;;8.87;6.70;;;10.20;99.90;;;;;;4981131;28;20547;-29
2022/05/04 05:43:28;;;;;;;6.43;5.83;;;10.20;99.90;;;;;;4983833;28;20195;-30
2022/05/04 05:45:55;;;;;;;6.80;6.00;;;10.30;99.90;;;;;;4973073;28;20186;-30
2022/05/04 05:48:20;;;;;;;8.87;5.80;;;10.30;99.90;;;;;;4990048;28;20239;-29
2022/05/04 05:50:47;;;;;;;7.20;6.07;;;10.20;99.90;;;;;;4974607;28;20188;-30
2022/05/04 05:53:14;;;;;;;7.37;6.33;;;10.30;99.90;;;;;;5002107;28;20203;-29
2022/05/04 05:55:41;;;;;;;6.80;6.10;;;10.20;99.90;;;;;;5013144;28;20188;-30
2022/05/04 05:58:09;;;;;;;6.80;6.17;;;10.20;99.90;;;;;;5013163;28;20171;-30
2022/05/04 06:00:36;;;;;;;6.53;5.93;;;10.30;99.90;;;;;;4974590;28;20213;-30
2022/05/04 06:03:02;;;;;;;8.70;7.07;;;10.40;99.90;;;;;;4979319;28;20206;-30
2022/05/04 06:05:28;;;;;;;7.47;6.70;;;10.50;99.90;;;;;;5004457;28;20180;-29
2022/05/04 06:07:54;;;;;;;9.93;6.70;;;10.50;99.90;;;;;;5008703;28;20187;-30
2022/05/04 06:10:20;;;;;;;7.93;6.90;;;10.60;99.90;;;;;;4992409;28;20242;-29
2022/05/04 06:12:46;;;;;;;7.40;6.30;;;10.70;99.90;;;;;;4964671;28;20238;-30
2022/05/04 06:15:12;;;;;;;7.90;6.40;;;10.70;99.90;;;;;;4991462;28;20262;-29
2022/05/04 06:17:38;;;;;;;8.00;6.50;;;10.80;99.90;;;;;;4986391;28;20256;-29
2022/05/04 06:20:07;;;;;;;7.77;7.07;;;10.80;99.90;;;;;;4987375;28;20247;-29
2022/05/04 06:22:33;;;;;;;9.00;6.20;;;10.90;99.90;;;;;;4995485;28;20176;-29
2022/05/04 06:24:59;;;;;;;8.03;7.17;;;11.00;99.90;;;;;;4978356;28;20213;-29
2022/05/04 06:27:29;;;;;;;10.60;7.70;;;11.10;99.90;;;;;;4991883;28;20229;-30
2022/05/04 06:35:24;;;;;;;8.20;7.17;;;11.20;99.90;;;;;;4980988;28;20252;-29
2022/05/04 06:37:50;;;;;;;7.37;6.67;;;11.20;99.90;;;;;;4982160;28;20230;-31
2022/05/04 06:40:16;;;;;;;9.90;6.97;;;11.10;99.90;;;;;;5000555;28;20626;-31
2022/05/04 06:42:42;;;;;;;6.90;6.20;;;11.20;99.90;;;;;;4983417;28;20176;-31
2022/05/04 06:45:08;;;;;;;7.73;6.77;;;11.20;99.90;;;;;;4968595;28;20191;-29
2022/05/04 06:47:34;;;;;;;8.57;7.03;;;11.30;99.90;;;;;;4970732;28;20175;-31
2022/05/04 06:50:00;;;;;;;8.70;6.93;;;11.40;99.90;;;;;;4970533;28;20191;-30
2022/05/04 06:52:26;;;;;;;9.53;6.73;;;11.50;99.90;;;;;;4988399;28;20219;-31
2022/05/04 06:54:53;;;;;;;8.00;7.20;;;11.50;99.90;;;;;;4996495;28;20215;-30
2022/05/04 06:57:19;;;;;;;10.57;7.33;;;11.60;99.90;;;;;;4980527;28;20261;-31
2022/05/04 06:59:44;;;;;;;7.10;6.40;;;11.70;99.90;;;;;;4996143;28;20277;-29
2022/05/04 07:02:10;;;;;;;10.00;7.23;;;11.80;99.90;;;;;;5016174;28;20188;-29
2022/05/04 07:04:36;;;;;;;7.47;6.60;;;12.10;99.90;;;;;;4982681;28;20183;-29
2022/05/04 07:07:02;;;;;;;7.00;6.30;;;12.30;99.90;;;;;;4980725;28;20182;-31
2022/05/04 07:09:28;;;;;;;8.17;6.80;;;12.60;99.90;;;;;;4996163;28;20195;-31
2022/05/04 07:11:54;;;;;;;8.20;6.33;;;12.90;99.90;;;;;;5014158;28;20272;-30
2022/05/04 07:14:19;;;;;;;9.47;6.40;;;12.90;99.90;;;;;;4996390;28;20180;-29
2022/05/04 07:16:46;;;;;;;7.27;6.50;;;13.00;99.90;;;;;;4996201;28;20174;-30
2022/05/04 07:19:13;;;;;;;10.27;6.30;;;13.10;99.90;;;;;;4979682;28;20211;-30
2022/05/04 07:21:39;;;;;;;7.67;6.20;;;13.40;99.90;;;;;;4996184;28;20281;-30
2022/05/04 07:24:06;;;;;;;6.57;5.97;;;13.70;99.90;;;;;;5014125;28;20261;-29
2022/05/04 07:26:31;;;;;;;9.07;5.70;;;13.80;99.90;;;;;;4979982;28;20277;-30
2022/05/04 07:28:57;;;;;;;7.30;5.87;;;14.00;99.90;;;;;;4979945;28;20274;-31
2022/05/04 07:31:23;;;;;;;7.83;6.27;;;14.20;99.90;;;;;;4979807;28;20205;-29
2022/05/04 07:33:49;;;;;;;6.10;5.47;;;14.30;99.90;;;;;;4979640;28;20747;-31
2022/05/04 07:36:15;;;;;;;9.63;6.23;;;14.50;99.90;;;;;;4979719;28;20176;-30
2022/05/04 07:38:40;;;;;;;6.67;5.90;;;14.70;99.90;;;;;;4979569;28;20206;-30
2022/05/04 07:43:50;;;;;;;6.27;5.30;;;14.90;99.90;;;;;;4995109;28;20201;-30
2022/05/04 07:46:16;;;;;;;6.00;5.40;;;15.20;99.90;;;;;;4979313;28;20640;-29
2022/05/04 07:48:42;;;;;;;7.00;5.83;;;15.20;99.90;;;;;;4979365;28;20206;-31
2022/05/04 07:51:08;;;;;;;6.57;5.93;;;15.40;99.90;;;;;;4979164;28;20183;-29
2022/05/04 07:53:33;;;;;;;7.63;5.70;;;15.50;99.90;;;;;;4995534;28;20203;-31
2022/05/04 07:56:00;;;;;;;6.60;5.93;;;15.70;99.90;;;;;;4994784;28;20218;-30
2022/05/04 07:58:26;;;;;;;6.00;4.90;;;16.00;99.90;;;;;;4995054;28;20194;-30
2022/05/04 08:06:20;;;;;;;6.77;6.07;;;16.80;99.90;;;;;;4995415;28;20237;-30
2022/05/04 08:08:46;;;;;;;10.20;6.10;;;17.00;99.90;;;;;;5012648;28;20199;-31
2022/05/04 08:11:12;;;;;;;8.40;5.80;;;17.00;99.90;;;;;;4995144;28;20751;-31
2022/05/04 08:13:37;;;;;;;6.47;5.43;;;16.80;99.90;;;;;;4995195;28;20210;-29
2022/05/04 08:16:04;;;;;;;5.63;4.83;;;17.00;99.90;;;;;;4995154;28;20179;-30
2022/05/04 08:18:30;;;;;;;6.23;5.50;;;17.10;99.90;;;;;;4978783;28;20230;-32
2022/05/04 08:20:56;;;;;;;6.23;5.63;;;17.20;99.90;;;;;;4994834;28;20238;-30
2022/05/04 08:23:23;;;;;;;5.90;5.23;;;17.00;99.90;;;;;;4994771;28;20175;-31
2022/05/04 08:25:50;;;;;;;5.55;5.05;;;17.10;99.90;;;;;;4995142;28;20187;-30
2022/05/04 08:28:17;;;;;;;5.97;5.27;;;17.00;99.90;;;;;;5012476;28;20179;-30
2022/05/04 08:30:43;;;;;;;6.43;4.90;;;17.00;99.90;;;;;;4994790;28;20198;-30
2022/05/04 08:33:09;;;;;;;5.88;5.35;;;16.90;99.90;;;;;;4978727;28;20207;-30
2022/05/04 08:35:35;;;;;;;6.50;4.73;;;16.70;99.90;;;;;;4978735;28;20259;-32
2022/05/04 08:38:01;;;;;;;5.78;4.90;;;16.80;99.90;;;;;;4978467;28;20195;-31
2022/05/04 08:40:28;;;;;;;7.50;4.83;;;16.90;99.90;;;;;;4994377;28;20199;-31
2022/05/04 08:42:55;;;;;;;5.40;4.90;;;16.90;99.90;;;;;;5012411;28;20600;-30
2022/05/04 08:45:22;;;;;;;5.68;4.60;;;17.00;99.90;;;;;;5012365;28;20205;-30
2022/05/04 08:47:49;;;;;;;5.38;4.82;;;17.10;99.90;;;;;;4978294;28;20182;-29
2022/05/04 08:50:17;;;;;;;6.10;5.05;;;17.30;99.90;;;;;;4994211;28;20253;-31
2022/05/04 08:52:54;;;;;;;5.13;4.63;;;17.40;99.90;;;;;;4994177;28;20262;-31
2022/05/04 08:55:21;;;;;;;5.40;4.90;;;17.60;99.90;;;;;;4978474;28;20178;-30
2022/05/04 08:57:47;;;;;;;5.15;4.63;;;17.80;99.90;;;;;;4978200;28;20179;-31
2022/05/04 09:00:15;;;;;;;6.57;4.90;;;18.10;99.90;;;;;;4974519;28;20223;-30
2022/05/04 09:02:41;;;;;;;5.10;4.18;;;18.20;99.90;;;;;;4974885;28;20241;-31
2022/05/04 09:05:19;;;;;;;4.15;3.75;;;18.60;99.90;;;;;;4958600;28;20191;-31
2022/05/04 09:07:49;;;;;;;4.35;3.95;;;18.90;99.90;;;;;;4974178;28;20183;-31
2022/05/04 09:10:22;;;;;;;4.30;3.90;;;19.00;99.90;;;;;;4958561;28;20207;-31
2022/05/04 09:12:51;;;;;;;5.35;4.30;;;19.20;99.90;;;;;;4958697;28;20262;-30
2022/05/04 09:15:19;;;;;;;4.75;3.92;;;19.50;99.90;;;;;;4974822;28;20191;-31
2022/05/04 09:17:45;;;;;;;4.10;3.75;;;19.60;99.90;;;;;;4974389;28;20180;-32
2022/05/04 09:22:56;;;;;;;4.50;3.35;;;19.90;99.90;;;;;;4991300;28;20186;-31
2022/05/04 09:25:25;;;;;;;3.85;2.65;;;20.10;99.90;;;;;;4974494;28;20270;-30
2022/05/04 09:27:51;;;;;;;3.50;3.20;;;20.20;99.90;;;;;;4973569;28;20251;-32
2022/05/04 09:30:24;;;;;;;5.95;3.72;;;20.30;99.90;;;;;;4980481;28;20219;-30
2022/05/04 09:32:50;;;;;;;3.22;2.92;;;20.10;99.90;;;;;;4958324;28;20235;-30
2022/05/04 09:35:17;;;;;;;3.45;2.97;;;20.00;99.90;;;;;;4974119;28;20216;-31
2022/05/04 09:46:15;;;;;;;3.45;3.10;;;19.20;99.90;;;;;;4974241;28;20241;-30
2022/05/04 09:48:40;;;;;;;5.47;3.42;;;19.20;99.90;;;;;;4973943;28;20207;-31
2022/05/04 09:51:08;;;;;;;8.32;4.78;;;19.40;99.90;;;;;;4973917;28;20187;-30
2022/05/04 09:53:35;;;;;;;4.75;4.32;;;19.50;99.90;;;;;;4958118;28;20330;-31
2022/05/04 09:56:01;;;;;;;4.85;4.05;;;19.40;99.90;;;;;;4974360;28;20176;-31
2022/05/04 09:58:28;;;;;;;2.92;2.72;;;19.80;99.90;;;;;;4973857;28;20212;-32
2022/05/04 10:00:55;;;;;;;3.35;3.05;;;20.00;99.90;;;;;;5030466;23;20260;-44
2022/05/04 10:03:21;;;;;;;4.95;2.80;;;20.10;99.90;;;;;;4995936;28;20240;-43
2022/05/04 10:05:49;;;;;;;3.50;3.20;;;20.20;99.90;;;;;;4996610;28;20194;-44
2022/05/04 10:08:15;;;;;;;3.33;3.03;;;20.10;99.90;;;;;;4996876;28;20200;-40
2022/05/04 10:10:41;;;;;;;4.32;2.90;;;20.10;99.90;;;;;;4996439;28;20205;-41
2022/05/04 10:13:08;;;;;;;3.17;2.40;;;20.00;99.90;;;;;;4996420;28;20293;-43
2022/05/04 10:15:37;;;;;;;3.13;2.65;;;20.10;99.90;;;;;;4996715;28;20193;-43
2022/05/04 10:18:07;;;;;;;2.90;2.70;;;20.60;99.90;;;;;;5012632;28;20182;-40
2022/05/04 10:20:50;;;;;;;2.80;2.60;;;20.90;99.90;;;;;;5016510;28;20203;-40
2022/05/04 10:23:16;;;;;;;3.83;3.00;;;21.00;99.90;;;;;;5000535;28;20186;-43
2022/05/04 10:25:43;;;;;;;3.28;2.97;;;21.10;99.90;;;;;;5016746;28;20182;-44
2022/05/04 10:28:15;;;;;;;3.67;2.80;;;21.30;99.90;;;;;;5016721;28;20186;-45
2022/05/04 10:30:55;;;;;;;6.47;3.17;;;21.50;99.90;;;;;;5000094;28;20217;-41
2022/05/04 10:33:30;;;;;;;2.88;2.42;;;21.40;99.90;;;;;;5000469;28;20210;-41
2022/05/04 10:35:56;;;;;;;3.38;2.30;;;21.60;99.90;;;;;;5000528;28;20210;-42
2022/05/04 10:38:28;;;;;;;6.78;3.22;;;21.60;99.90;;;;;;5000162;28;20179;-40
2022/05/04 10:40:56;;;;;;;3.72;2.70;;;21.50;99.90;;;;;;5016225;28;20186;-40
2022/05/04 10:43:50;;;;;;;3.65;2.70;;;21.50;99.90;;;;;;5016479;28;20182;-41
2022/05/04 10:46:21;;;;;;;3.35;2.80;;;21.60;99.90;;;;;;5000075;28;20282;-42
2022/05/04 10:48:59;;;;;;;3.20;2.65;;;21.50;99.90;;;;;;5034544;28;20181;-41
2022/05/04 10:51:30;;;;;;;2.75;2.50;;;21.10;99.90;;;;;;4999920;28;20187;-43
2022/05/04 10:54:12;;;;;;;3.20;2.63;;;21.20;99.90;;;;;;5016489;28;20562;-40
2022/05/04 10:56:47;;;;;;;4.75;2.90;;;21.00;99.90;;;;;;4999909;28;20178;-41
2022/05/04 10:59:24;;;;;;;3.22;2.70;;;21.00;99.90;;;;;;5017094;28;20209;-39
2022/05/04 11:01:50;;;;;;;3.95;2.78;;;21.00;99.90;;;;;;5016440;28;20190;-44
2022/05/04 11:04:25;;;;;;;3.38;2.20;;;21.20;99.90;;;;;;4999629;28;20179;-43
2022/05/04 11:07:12;;;;;;;2.60;2.40;;;21.30;99.90;;;;;;4999721;28;20182;-41
2022/05/04 11:09:42;;;;;;;3.85;2.70;;;21.10;99.90;;;;;;4999406;28;20234;-44
2022/05/04 11:12:10;;;;;;;2.75;2.40;;;21.00;99.90;;;;;;4999407;28;20183;-41
2022/05/04 11:14:36;;;;;;;2.60;2.13;;;21.20;99.90;;;;;;4999463;28;20183;-41
2022/05/04 11:17:09;;;;;;;2.25;2.00;;;21.20;99.90;;;;;;4999672;28;20229;-40
2022/05/04 11:19:42;;;;;;;2.47;2.22;;;21.10;99.90;;;;;;4999400;28;20203;-43
2022/05/04 11:22:08;;;;;;;3.67;2.17;;;20.80;99.90;;;;;;5033743;28;20174;-42
2022/05/04 11:24:34;;;;;;;5.18;2.50;;;20.50;99.90;;;;;;5015467;28;20233;-41
2022/05/04 11:27:00;;;;;;;2.30;1.88;;;20.30;99.90;;;;;;5015764;28;20182;-42
2022/05/04 11:29:27;;;;;;;3.33;2.95;;;20.30;99.90;;;;;;4999203;28;20207;-42
2022/05/04 11:32:05;;;;;;;4.32;2.90;;;20.30;99.90;;;;;;5014725;28;20245;-44
2022/05/04 11:34:36;;;;;;;3.60;2.85;;;20.20;99.90;;;;;;5015607;28;20277;-40
2022/05/04 11:37:05;;;;;;;3.05;2.55;;;20.20;99.90;;;;;;5033202;28;20623;-43
2022/05/04 11:39:31;;;;;;;3.63;2.97;;;20.10;99.90;;;;;;4995985;28;20205;-44
2022/05/04 11:42:01;;;;;;;3.17;2.13;;;20.10;99.90;;;;;;5006208;28;20167;-46
2022/05/04 11:44:29;;;;;;;2.40;2.20;;;19.90;99.90;;;;;;4989153;28;20238;-41
2022/05/04 11:46:58;;;;;;;2.95;2.25;;;19.70;99.90;;;;;;4987631;28;20171;-41
2022/05/04 11:49:27;;;;;;;4.75;2.35;;;19.40;99.90;;;;;;5000217;28;20195;-40
2022/05/04 11:51:54;;;;;;;6.45;2.60;;;19.30;99.90;;;;;;4979634;28;20233;-40
2022/05/04 11:54:21;;;;;;;3.80;2.80;;;19.20;99.90;;;;;;4979625;28;20207;-42
2022/05/04 11:56:47;;;;;;;3.97;2.80;;;19.00;99.90;;;;;;4979336;28;20202;-43
2022/05/04 11:59:13;;;;;;;3.10;2.58;;;18.90;99.90;;;;;;4995110;28;20211;-40
2022/05/04 12:01:40;;;;;;;3.92;2.58;;;18.80;99.90;;;;;;4995494;28;20183;-44
2022/05/04 12:04:09;;;;;;;4.38;2.55;;;18.70;99.90;;;;;;4995242;28;20262;-41
2022/05/04 12:06:35;;;;;;;4.47;3.70;;;18.60;99.90;;;;;;4995679;28;20179;-43
2022/05/04 12:09:03;;;;;;;5.93;4.28;;;18.30;99.90;;;;;;4994916;28;20211;-42
2022/05/04 12:11:30;;;;;;;5.40;3.58;;;18.10;99.90;;;;;;5013277;28;20179;-40
2022/05/04 12:13:59;;;;;;;4.13;3.10;;;17.90;99.90;;;;;;4978868;28;20250;-41
2022/05/04 12:16:26;;;;;;;5.60;3.90;;;17.80;99.90;;;;;;4979116;28;20222;-40
2022/05/04 12:18:52;;;;;;;4.00;3.47;;;17.70;99.90;;;;;;4978498;28;20258;-39
2022/05/04 12:21:20;;;;;;;4.15;3.20;;;17.60;99.90;;;;;;4995130;28;20182;-40
2022/05/04 12:23:52;;;;;;;3.95;2.72;;;17.50;99.90;;;;;;4995016;28;20183;-42
2022/05/04 12:26:19;;;;;;;3.97;2.88;;;17.50;99.90;;;;;;4978826;28;20190;-39
2022/05/04 12:34:16;;;;;;;3.13;2.67;;;17.20;99.90;;;;;;4995811;28;20710;-41
2022/05/04 12:36:47;;;;;;;4.13;3.72;;;17.30;99.90;;;;;;4996223;28;20213;-40
2022/05/04 12:39:14;;;;;;;3.80;2.92;;;17.30;99.90;;;;;;4988730;28;20191;-40
2022/05/04 12:41:42;;;;;;;2.92;2.65;;;17.40;99.90;;;;;;5003074;28;20187;-39
2022/05/04 12:44:10;;;;;;;4.50;2.25;;;17.50;99.90;;;;;;5003615;28;20635;-41
2022/05/04 12:46:37;;;;;;;2.33;1.95;;;17.60;99.90;;;;;;5005434;28;20249;-39
2022/05/04 12:49:04;;;;;;;3.30;1.90;;;17.40;99.90;;;;;;5004100;28;20202;-39
2022/05/04 12:51:30;;;;;;;5.03;2.28;;;17.30;99.90;;;;;;4996912;28;20201;-43
2022/05/04 12:53:57;;;;;;;2.63;1.90;;;17.40;99.90;;;;;;5020619;28;20195;-39
2022/05/04 12:59:07;;;;;;;3.72;2.30;;;17.60;99.90;;;;;;5013586;28;20241;-40
2022/05/04 13:01:36;;;;;;;4.57;2.45;;;17.60;99.90;;;;;;4978258;28;20179;-39
2022/05/04 13:04:02;;;;;;;4.57;2.58;;;17.60;99.90;;;;;;4978092;28;20210;-39
2022/05/04 13:06:28;;;;;;;3.28;2.25;;;17.70;99.90;;;;;;4994589;28;20191;-39
2022/05/04 13:08:54;;;;;;;3.25;2.22;;;17.60;99.90;;;;;;4977444;28;20636;-40
2022/05/04 13:11:22;;;;;;;4.18;2.67;;;17.70;99.90;;;;;;4978124;28;20191;-41
2022/05/04 13:13:48;;;;;;;3.28;2.30;;;17.80;99.90;;;;;;4994054;28;20211;-40
2022/05/04 13:16:15;;;;;;;3.47;1.98;;;17.70;99.90;;;;;;4977973;28;20198;-40
2022/05/04 13:18:42;;;;;;;3.97;2.10;;;17.70;99.90;;;;;;4977805;28;20190;-39
2022/05/04 13:21:08;;;;;;;2.75;2.20;;;17.80;99.90;;;;;;4994337;28;20180;-40
2022/05/04 13:23:35;;;;;;;2.30;1.98;;;17.80;99.90;;;;;;4978095;28;20209;-42
2022/05/04 13:26:00;;;;;;;2.60;2.00;;;17.80;99.90;;;;;;4993970;28;20187;-39
2022/05/04 13:28:31;;;;;;;3.90;2.28;;;17.80;99.90;;;;;;5011772;28;20186;-39
2022/05/04 13:31:00;;;;;;;3.45;1.92;;;17.70;99.90;;;;;;4993669;28;20207;-39
2022/05/04 13:33:26;;;;;;;3.30;1.80;;;17.70;99.90;;;;;;4993848;28;20218;-39
2022/05/04 13:35:52;;;;;;;3.20;2.17;;;17.60;99.90;;;;;;5011212;28;20191;-40
2022/05/04 13:38:18;;;;;;;2.42;2.00;;;17.70;99.90;;;;;;5011450;28;20213;-40